Station Historical Data
Daily Summary for May 7, 2017 Units:  English    Metric   Both
« Previous Day
Next Day »
Daily Weekly Monthly Yearly Custom
  High: Low: Average:
Temperature: 63.8 °F 45.9 °F 54.6 °F
Dew Point: 53.5 °F 42.8 °F 48.2 °F
Humidity: 89 % 62 % 80 %
Wind Speed: 11.0 mph 0.0 mph 1.4 mph
Wind Gust: 14.0 mph - -
Wind:- - West
Pressure: 29.94 in 29.67 in -
Precipitation: 0.00 in    
Historical Graphs
 
 
Tabular Data for May 7, 2017
Time Temperature Dew Point Pressure Wind Wind Speed Wind Gust Humidity Rainfall Rate (Hourly) solar
00:02 47.0 °F 43.9 °F 29.72 in Calm     89 % 0.00 in 0.00 W/m2
00:08 47.0 °F 43.9 °F 29.72 in Calm     89 % 0.00 in 0.00 W/m2
00:13 47.0 °F 43.9 °F 29.72 in Calm     89 % 0.00 in 0.00 W/m2
00:18 47.0 °F 43.9 °F 29.73 in Calm     89 % 0.00 in 0.00 W/m2
00:23 46.9 °F 43.8 °F 29.73 in Calm     89 % 0.00 in 0.00 W/m2
00:28 46.8 °F 43.7 °F 29.72 in Calm     89 % 0.00 in 0.00 W/m2
00:33 46.7 °F 43.6 °F 29.72 in Calm     89 % 0.00 in 0.00 W/m2
00:38 46.6 °F 43.5 °F 29.72 in Calm     89 % 0.00 in 0.00 W/m2
00:43 46.6 °F 43.5 °F 29.72 in Calm   5.0 mph 89 % 0.00 in 0.00 W/m2
00:48 46.6 °F 43.5 °F 29.72 in Calm     89 % 0.00 in 0.00 W/m2
00:53 46.6 °F 43.5 °F 29.72 in Calm     89 % 0.00 in 0.00 W/m2
00:58 46.6 °F 43.5 °F 29.72 in Calm     89 % 0.00 in 0.00 W/m2
01:03 46.6 °F 43.5 °F 29.72 in Calm     89 % 0.00 in 0.00 W/m2
01:08 46.7 °F 43.6 °F 29.72 in Calm     89 % 0.00 in 0.00 W/m2
01:13 46.7 °F 43.6 °F 29.72 in Calm     89 % 0.00 in 0.00 W/m2
01:18 46.7 °F 43.6 °F 29.72 in Calm     89 % 0.00 in 0.00 W/m2
01:23 46.7 °F 43.6 °F 29.71 in Calm     89 % 0.00 in 0.00 W/m2
01:28 46.7 °F 43.6 °F 29.71 in Calm     89 % 0.00 in 0.00 W/m2
01:33 46.7 °F 43.6 °F 29.71 in Calm     89 % 0.00 in 0.00 W/m2
01:38 46.7 °F 43.6 °F 29.71 in Calm     89 % 0.00 in 0.00 W/m2
01:43 46.7 °F 43.6 °F 29.71 in Calm     89 % 0.00 in 0.00 W/m2
01:48 46.7 °F 43.6 °F 29.71 in Calm     89 % 0.00 in 0.00 W/m2
01:53 46.8 °F 43.7 °F 29.70 in Calm     89 % 0.00 in 0.00 W/m2
01:58 46.8 °F 43.7 °F 29.70 in Calm     89 % 0.00 in 0.00 W/m2
02:04 46.8 °F 43.7 °F 29.70 in Calm     89 % 0.00 in 0.00 W/m2
02:09 46.9 °F 43.8 °F 29.70 in Calm     89 % 0.00 in 0.00 W/m2
02:14 46.9 °F 43.8 °F 29.70 in NNW 4.0 mph 5.0 mph 89 % 0.00 in 0.00 W/m2
02:19 46.9 °F 43.8 °F 29.70 in Calm   4.0 mph 89 % 0.00 in 0.00 W/m2
02:24 46.9 °F 43.8 °F 29.70 in Calm     89 % 0.00 in 0.00 W/m2
02:29 46.9 °F 43.8 °F 29.70 in Calm     89 % 0.00 in 0.00 W/m2
02:34 47.0 °F 43.9 °F 29.69 in Calm     89 % 0.00 in 0.00 W/m2
02:39 47.1 °F 44.0 °F 29.69 in Calm     89 % 0.00 in 0.00 W/m2
02:44 47.1 °F 44.0 °F 29.69 in Calm     89 % 0.00 in 0.00 W/m2
02:49 47.2 °F 44.1 °F 29.69 in Calm     89 % 0.00 in 0.00 W/m2
02:54 47.2 °F 44.1 °F 29.69 in Calm     89 % 0.00 in 0.00 W/m2
02:59 47.2 °F 44.1 °F 29.69 in Calm     89 % 0.00 in 0.00 W/m2
03:04 47.2 °F 44.1 °F 29.69 in Calm     89 % 0.00 in 0.00 W/m2
03:09 47.2 °F 44.1 °F 29.69 in Calm     89 % 0.00 in 0.00 W/m2
03:14 47.0 °F 43.9 °F 29.69 in Calm     89 % 0.00 in 0.00 W/m2
03:19 46.9 °F 43.8 °F 29.69 in NNW 5.0 mph 6.0 mph 89 % 0.00 in 0.00 W/m2
03:24 46.8 °F 43.7 °F 29.69 in Calm   6.0 mph 89 % 0.00 in 0.00 W/m2
03:29 46.7 °F 43.6 °F 29.69 in North 4.0 mph 5.0 mph 89 % 0.00 in 0.00 W/m2
03:34 46.6 °F 43.5 °F 29.69 in Calm   6.0 mph 89 % 0.00 in 0.00 W/m2
03:39 46.6 °F 43.5 °F 29.69 in Calm     89 % 0.00 in 0.00 W/m2
03:44 46.5 °F 43.4 °F 29.69 in NNE 4.0 mph 7.0 mph 89 % 0.00 in 0.00 W/m2
03:49 46.5 °F 43.4 °F 29.69 in Calm   5.0 mph 89 % 0.00 in 0.00 W/m2
03:54 46.4 °F 43.3 °F 29.69 in NNE 3.0 mph 7.0 mph 89 % 0.00 in 0.00 W/m2
03:59 46.4 °F 43.3 °F 29.68 in Calm   4.0 mph 89 % 0.00 in 0.00 W/m2
04:04 46.4 °F 43.3 °F 29.69 in Calm     89 % 0.00 in 0.00 W/m2
04:09 46.5 °F 43.4 °F 29.68 in Calm     89 % 0.00 in 0.00 W/m2
04:14 46.5 °F 43.4 °F 29.68 in Calm   3.0 mph 89 % 0.00 in 0.00 W/m2
04:17 46.6 °F 43.5 °F 29.68 in Calm     89 % 0.00 in 0.00 W/m2
04:22 46.6 °F 43.5 °F 29.68 in Calm     89 % 0.00 in 0.00 W/m2
04:27 46.6 °F 43.5 °F 29.68 in Calm     89 % 0.00 in 0.00 W/m2
04:32 46.5 °F 43.4 °F 29.67 in Calm     89 % 0.00 in 0.00 W/m2
04:37 46.4 °F 43.3 °F 29.67 in NNE 3.0 mph 6.0 mph 89 % 0.00 in 0.00 W/m2
04:42 46.3 °F 43.2 °F 29.67 in Calm     89 % 0.00 in 0.00 W/m2
04:47 46.2 °F 43.1 °F 29.68 in Calm     89 % 0.00 in 0.00 W/m2
04:49 46.1 °F 43.0 °F 29.68 in Calm     89 % 0.00 in 0.00 W/m2
05:04 46.0 °F 43.0 °F 29.68 in Calm     89 % 0.00 in 0.00 W/m2
05:09 46.0 °F 43.0 °F 29.69 in Calm     89 % 0.00 in 0.00 W/m2
05:14 46.0 °F 43.0 °F 29.69 in Calm     89 % 0.00 in 0.00 W/m2
05:19 45.9 °F 42.8 °F 29.68 in Calm     89 % 0.00 in 0.00 W/m2
05:24 46.0 °F 43.0 °F 29.69 in NNE 3.0 mph 5.0 mph 89 % 0.00 in 0.00 W/m2
05:29 45.9 °F 42.8 °F 29.69 in Calm     89 % 0.00 in 0.00 W/m2
05:34 45.9 °F 42.8 °F 29.69 in Calm     89 % 0.00 in 0.00 W/m2
05:39 45.9 °F 42.8 °F 29.69 in Calm   6.0 mph 89 % 0.00 in 0.00 W/m2
05:44 45.9 °F 42.8 °F 29.69 in Calm     89 % 0.00 in 0.00 W/m2
05:49 46.0 °F 43.0 °F 29.69 in NE 2.0 mph 5.0 mph 89 % 0.00 in 0.00 W/m2
05:54 46.0 °F 43.0 °F 29.69 in Calm   4.0 mph 89 % 0.00 in 0.00 W/m2
05:59 46.0 °F 43.0 °F 29.70 in Calm     89 % 0.00 in 7.00 W/m2
06:04 45.9 °F 42.8 °F 29.71 in Calm     89 % 0.00 in 9.00 W/m2
06:09 46.0 °F 43.0 °F 29.72 in Calm     89 % 0.00 in 14.00 W/m2
06:14 46.0 °F 43.0 °F 29.72 in Calm     89 % 0.00 in 25.00 W/m2
06:19 46.0 °F 43.0 °F 29.73 in Calm   3.0 mph 89 % 0.00 in 26.00 W/m2
06:24 46.1 °F 43.0 °F 29.73 in Calm     89 % 0.00 in 33.00 W/m2
06:29 46.2 °F 43.1 °F 29.73 in Calm     89 % 0.00 in 44.00 W/m2
06:34 46.2 °F 43.1 °F 29.73 in Calm     89 % 0.00 in 56.00 W/m2
06:39 46.2 °F 43.1 °F 29.74 in Calm     89 % 0.00 in 70.00 W/m2
06:44 46.3 °F 43.2 °F 29.75 in Calm   8.0 mph 89 % 0.00 in 79.00 W/m2
06:49 46.4 °F 43.3 °F 29.76 in SE 5.0 mph 11.0 mph 89 % 0.00 in 49.00 W/m2
06:54 46.6 °F 43.5 °F 29.76 in SE 11.0 mph 11.0 mph 89 % 0.00 in 83.00 W/m2
06:59 46.7 °F 43.6 °F 29.77 in SE 2.0 mph 11.0 mph 89 % 0.00 in 125.00 W/m2
07:04 46.9 °F 43.8 °F 29.77 in SE 4.0 mph 12.0 mph 89 % 0.00 in 142.00 W/m2
07:09 47.0 °F 43.9 °F 29.77 in SE 4.0 mph 7.0 mph 89 % 0.00 in 169.00 W/m2
07:14 47.1 °F 44.0 °F 29.77 in SE 1.0 mph 7.0 mph 89 % 0.00 in 195.00 W/m2
07:19 47.3 °F 44.2 °F 29.77 in SE 4.0 mph 10.0 mph 89 % 0.00 in 174.00 W/m2
07:24 47.4 °F 44.3 °F 29.77 in Calm   9.0 mph 89 % 0.00 in 279.00 W/m2
07:29 47.6 °F 44.5 °F 29.77 in SE 2.0 mph 9.0 mph 89 % 0.00 in 132.00 W/m2
07:34 47.7 °F 44.6 °F 29.77 in SE 1.0 mph 7.0 mph 89 % 0.00 in 253.00 W/m2
07:39 47.9 °F 44.8 °F 29.77 in Calm   6.0 mph 89 % 0.00 in 141.00 W/m2
07:44 48.0 °F 44.9 °F 29.77 in Calm   5.0 mph 89 % 0.00 in 179.00 W/m2
07:50 48.2 °F 45.1 °F 29.77 in Calm     89 % 0.00 in 255.00 W/m2
07:55 48.3 °F 45.2 °F 29.77 in Calm     89 % 0.00 in 155.00 W/m2
08:00 48.5 °F 45.4 °F 29.77 in Calm     89 % 0.00 in 155.00 W/m2
08:05 48.7 °F 45.6 °F 29.77 in Calm     89 % 0.00 in 295.00 W/m2
08:10 48.8 °F 45.7 °F 29.77 in Calm     89 % 0.00 in 339.00 W/m2
08:15 48.9 °F 45.5 °F 29.77 in SE 4.0 mph 5.0 mph 88 % 0.00 in 401.00 W/m2
08:20 49.0 °F 45.9 °F 29.77 in North 2.0 mph 5.0 mph 89 % 0.00 in 411.00 W/m2
08:25 49.2 °F 46.1 °F 29.77 in Calm   6.0 mph 89 % 0.00 in 413.00 W/m2
08:26 49.2 °F 46.1 °F 29.77 in Calm     89 % 0.00 in 438.00 W/m2
08:32 49.4 °F 46.0 °F 29.77 in North 4.0 mph 5.0 mph 88 % 0.00 in 415.00 W/m2
08:37 49.8 °F 46.4 °F 29.78 in NNW 4.0 mph 6.0 mph 88 % 0.00 in 462.00 W/m2
08:42 49.9 °F 46.5 °F 29.78 in Calm     88 % 0.00 in 487.00 W/m2
08:47 50.1 °F 46.7 °F 29.78 in NNW 4.0 mph 4.0 mph 88 % 0.00 in 504.00 W/m2
08:52 50.5 °F 47.1 °F 29.79 in NNW 1.0 mph 3.0 mph 88 % 0.00 in 526.00 W/m2
08:57 50.9 °F 47.2 °F 29.79 in NNW 2.0 mph 5.0 mph 87 % 0.00 in 522.00 W/m2
09:02 51.2 °F 47.2 °F 29.79 in Calm   1.0 mph 86 % 0.00 in 545.00 W/m2
09:07 51.5 °F 47.5 °F 29.79 in Calm     86 % 0.00 in 480.00 W/m2
09:12 51.9 °F 47.8 °F 29.80 in West 3.0 mph 4.0 mph 86 % 0.00 in 575.00 W/m2
09:13 52.0 °F 48.0 °F 29.80 in West 1.0 mph 4.0 mph 86 % 0.00 in 580.00 W/m2
09:18 52.1 °F 47.7 °F 29.80 in West 3.0 mph 4.0 mph 85 % 0.00 in 596.00 W/m2
09:23 52.3 °F 47.6 °F 29.80 in West 4.0 mph 4.0 mph 84 % 0.00 in 608.00 W/m2
09:28 52.5 °F 47.5 °F 29.81 in WSW 6.0 mph 6.0 mph 83 % 0.00 in 622.00 W/m2
09:33 52.7 °F 47.7 °F 29.82 in Calm   4.0 mph 83 % 0.00 in 638.00 W/m2
09:38 52.8 °F 47.8 °F 29.82 in WSW 5.0 mph 6.0 mph 83 % 0.00 in 656.00 W/m2
09:43 53.0 °F 48.0 °F 29.82 in SSW 5.0 mph 13.0 mph 83 % 0.00 in 664.00 W/m2
09:48 53.1 °F 48.1 °F 29.82 in Calm   2.0 mph 83 % 0.00 in 680.00 W/m2
09:53 53.1 °F 47.8 °F 29.83 in Calm     82 % 0.00 in 694.00 W/m2
09:58 53.3 °F 48.0 °F 29.83 in Calm   8.0 mph 82 % 0.00 in 701.00 W/m2
10:03 53.5 °F 47.8 °F 29.83 in SW 3.0 mph 6.0 mph 81 % 0.00 in 717.00 W/m2
10:08 53.6 °F 48.2 °F 29.83 in SW 1.0 mph 2.0 mph 82 % 0.00 in 735.00 W/m2
10:13 53.8 °F 48.1 °F 29.83 in West 1.0 mph 4.0 mph 81 % 0.00 in 747.00 W/m2
10:18 54.1 °F 48.4 °F 29.83 in Calm   3.0 mph 81 % 0.00 in 761.00 W/m2
10:23 54.5 °F 48.5 °F 29.83 in Calm   3.0 mph 80 % 0.00 in 770.00 W/m2
10:28 54.8 °F 49.1 °F 29.82 in WSW 4.0 mph 8.0 mph 81 % 0.00 in 784.00 W/m2
10:33 55.1 °F 49.0 °F 29.83 in Calm   1.0 mph 80 % 0.00 in 795.00 W/m2
10:36 55.3 °F 48.9 °F 29.83 in WSW 1.0 mph 3.0 mph 79 % 0.00 in 798.00 W/m2
10:39 55.7 °F 49.3 °F 29.83 in West 2.0 mph 6.0 mph 79 % 0.00 in 807.00 W/m2
10:44 55.9 °F 49.5 °F 29.84 in WSW 5.0 mph 6.0 mph 79 % 0.00 in 812.00 W/m2
10:49 56.4 °F 50.0 °F 29.84 in WNW 2.0 mph 9.0 mph 79 % 0.00 in 837.00 W/m2
10:55 56.8 °F 50.0 °F 29.84 in NW 1.0 mph 9.0 mph 78 % 0.00 in 861.00 W/m2
11:00 56.9 °F 49.8 °F 29.84 in WNW 4.0 mph 6.0 mph 77 % 0.00 in 849.00 W/m2
11:05 57.3 °F 50.8 °F 29.84 in NW 8.0 mph 8.0 mph 79 % 0.00 in 849.00 W/m2
11:10 57.5 °F 50.7 °F 29.84 in NNW 1.0 mph 11.0 mph 78 % 0.00 in 853.00 W/m2
11:11 57.6 °F 50.8 °F 29.84 in WNW 1.0 mph 5.0 mph 78 % 0.00 in 854.00 W/m2
11:16 57.7 °F 50.2 °F 29.84 in WNW 2.0 mph 6.0 mph 76 % 0.00 in 868.00 W/m2
11:21 57.8 °F 50.3 °F 29.84 in Calm   5.0 mph 76 % 0.00 in 874.00 W/m2
11:26 58.1 °F 50.6 °F 29.84 in WNW 3.0 mph 5.0 mph 76 % 0.00 in 879.00 W/m2
11:31 58.3 °F 50.1 °F 29.84 in WNW 2.0 mph 5.0 mph 74 % 0.00 in 882.00 W/m2
11:36 58.6 °F 50.7 °F 29.84 in WNW 5.0 mph 5.0 mph 75 % 0.00 in 891.00 W/m2
11:41 58.9 °F 50.3 °F 29.84 in NW 3.0 mph 3.0 mph 73 % 0.00 in 895.00 W/m2
11:46 59.2 °F 50.6 °F 29.84 in NW 2.0 mph 4.0 mph 73 % 0.00 in 902.00 W/m2
11:51 59.5 °F 50.8 °F 29.84 in Calm   1.0 mph 73 % 0.00 in 918.00 W/m2
11:56 59.8 °F 51.5 °F 29.84 in Calm   7.0 mph 74 % 0.00 in 916.00 W/m2
12:01 60.2 °F 51.5 °F 29.84 in Calm     73 % 0.00 in 916.00 W/m2
12:02 60.2 °F 51.5 °F 29.84 in Calm     73 % 0.00 in 916.00 W/m2
12:07 60.5 °F 52.2 °F 29.84 in SW 8.0 mph 8.0 mph 74 % 0.00 in 930.00 W/m2
12:12 61.1 °F 53.5 °F 29.84 in SW 1.0 mph 5.0 mph 76 % 0.00 in 951.00 W/m2
12:17 61.5 °F 52.4 °F 29.84 in West 2.0 mph 6.0 mph 72 % 0.00 in 940.00 W/m2
12:22 61.7 °F 53.3 °F 29.84 in WNW 4.0 mph 6.0 mph 74 % 0.00 in 933.00 W/m2
12:27 61.7 °F 53.0 °F 29.84 in Calm   4.0 mph 73 % 0.00 in 925.00 W/m2
12:32 61.9 °F 53.5 °F 29.84 in WSW 6.0 mph 6.0 mph 74 % 0.00 in 935.00 W/m2
12:37 61.8 °F 52.7 °F 29.84 in WNW 1.0 mph 6.0 mph 72 % 0.00 in 225.00 W/m2
12:42 61.6 °F 52.9 °F 29.84 in WSW 4.0 mph 5.0 mph 73 % 0.00 in 967.00 W/m2
12:47 61.5 °F 52.8 °F 29.84 in Calm   3.0 mph 73 % 0.00 in 984.00 W/m2
12:52 61.4 °F 52.3 °F 29.84 in Calm   6.0 mph 72 % 0.00 in 965.00 W/m2
12:57 61.3 °F 52.6 °F 29.84 in WNW 7.0 mph 12.0 mph 73 % 0.00 in 942.00 W/m2
13:02 61.1 °F 52.4 °F 29.84 in NW 7.0 mph 7.0 mph 73 % 0.00 in 977.00 W/m2
13:07 61.1 °F 52.4 °F 29.84 in Calm   8.0 mph 73 % 0.00 in 958.00 W/m2
13:12 61.4 °F 52.7 °F 29.84 in WNW 7.0 mph 10.0 mph 73 % 0.00 in 937.00 W/m2
13:17 61.5 °F 52.4 °F 29.84 in NW 4.0 mph 9.0 mph 72 % 0.00 in 956.00 W/m2
13:22 61.5 °F 52.4 °F 29.85 in NW 6.0 mph 9.0 mph 72 % 0.00 in 988.00 W/m2
13:27 61.4 °F 51.9 °F 29.85 in NW 6.0 mph 9.0 mph 71 % 0.00 in 979.00 W/m2
13:32 61.1 °F 52.0 °F 29.84 in NW 3.0 mph 12.0 mph 72 % 0.00 in 1005.00 W/m2
13:37 61.1 °F 52.4 °F 29.85 in WNW 2.0 mph 10.0 mph 73 % 0.00 in 223.00 W/m2
13:42 60.9 °F 52.6 °F 29.84 in Calm   8.0 mph 74 % 0.00 in 592.00 W/m2
13:47 61.2 °F 52.9 °F 29.85 in NW 6.0 mph 7.0 mph 74 % 0.00 in 1035.00 W/m2
13:52 61.2 °F 52.1 °F 29.85 in NNW 3.0 mph 12.0 mph 72 % 0.00 in 914.00 W/m2
13:57 61.0 °F 52.3 °F 29.85 in North 2.0 mph 7.0 mph 73 % 0.00 in 911.00 W/m2
14:02 61.1 °F 52.8 °F 29.84 in WNW 3.0 mph 5.0 mph 74 % 0.00 in 902.00 W/m2
14:07 61.4 °F 52.7 °F 29.85 in WNW 5.0 mph 7.0 mph 73 % 0.00 in 898.00 W/m2
14:08 61.5 °F 52.8 °F 29.85 in WNW 6.0 mph 7.0 mph 73 % 0.00 in 898.00 W/m2
14:13 61.7 °F 53.0 °F 29.85 in North 2.0 mph 12.0 mph 73 % 0.00 in 902.00 W/m2
14:18 61.9 °F 52.8 °F 29.85 in NW 4.0 mph 8.0 mph 72 % 0.00 in 877.00 W/m2
14:23 61.9 °F 52.8 °F 29.85 in WNW 7.0 mph 12.0 mph 72 % 0.00 in 900.00 W/m2
14:28 61.7 °F 52.6 °F 29.85 in NW 1.0 mph 11.0 mph 72 % 0.00 in 884.00 W/m2
14:33 61.6 °F 52.5 °F 29.85 in SW 5.0 mph 14.0 mph 72 % 0.00 in 882.00 W/m2
14:38 61.7 °F 52.6 °F 29.85 in WNW 4.0 mph 9.0 mph 72 % 0.00 in 874.00 W/m2
14:43 61.8 °F 53.1 °F 29.85 in WNW 2.0 mph 13.0 mph 73 % 0.00 in 854.00 W/m2
14:48 62.0 °F 52.9 °F 29.85 in NNW 6.0 mph 11.0 mph 72 % 0.00 in 833.00 W/m2
14:53 62.2 °F 52.7 °F 29.85 in West 5.0 mph 8.0 mph 71 % 0.00 in 831.00 W/m2
14:58 62.3 °F 53.2 °F 29.85 in West 9.0 mph 12.0 mph 72 % 0.00 in 851.00 W/m2
15:03 62.4 °F 53.3 °F 29.85 in West 5.0 mph 11.0 mph 72 % 0.00 in 814.00 W/m2
15:08 62.5 °F 53.0 °F 29.85 in Calm   6.0 mph 71 % 0.00 in 789.00 W/m2
15:13 62.6 °F 53.5 °F 29.85 in NNW 3.0 mph 8.0 mph 72 % 0.00 in 784.00 W/m2
15:18 62.5 °F 52.6 °F 29.85 in West 9.0 mph 10.0 mph 70 % 0.00 in 765.00 W/m2
15:23 62.3 °F 52.4 °F 29.85 in Calm   11.0 mph 70 % 0.00 in 759.00 W/m2
15:28 62.1 °F 52.2 °F 29.84 in SW 2.0 mph 8.0 mph 70 % 0.00 in 749.00 W/m2
15:33 62.2 °F 52.7 °F 29.85 in WNW 3.0 mph 7.0 mph 71 % 0.00 in 738.00 W/m2
15:38 62.3 °F 52.4 °F 29.85 in NNW 3.0 mph 6.0 mph 70 % 0.00 in 722.00 W/m2
15:43 62.2 °F 52.3 °F 29.85 in West 5.0 mph 6.0 mph 70 % 0.00 in 717.00 W/m2
15:48 62.2 °F 52.7 °F 29.85 in Calm   9.0 mph 71 % 0.00 in 705.00 W/m2
15:53 62.3 °F 52.8 °F 29.85 in Calm   6.0 mph 71 % 0.00 in 694.00 W/m2
15:58 62.5 °F 53.0 °F 29.85 in Calm   6.0 mph 71 % 0.00 in 679.00 W/m2
16:03 62.7 °F 52.4 °F 29.85 in Calm   3.0 mph 69 % 0.00 in 666.00 W/m2
16:08 62.8 °F 52.5 °F 29.85 in Calm   12.0 mph 69 % 0.00 in 654.00 W/m2
16:13 62.9 °F 52.6 °F 29.84 in West 7.0 mph 10.0 mph 69 % 0.00 in 638.00 W/m2
16:18 63.0 °F 52.3 °F 29.85 in Calm   7.0 mph 68 % 0.00 in 626.00 W/m2
16:23 63.0 °F 52.7 °F 29.84 in Calm   10.0 mph 69 % 0.00 in 613.00 W/m2
16:28 63.1 °F 52.8 °F 29.85 in NW 3.0 mph 7.0 mph 69 % 0.00 in 596.00 W/m2
16:33 63.3 °F 52.2 °F 29.85 in NW 11.0 mph 11.0 mph 67 % 0.00 in 578.00 W/m2
16:36 63.4 °F 53.1 °F 29.85 in Calm   2.0 mph 69 % 0.00 in 570.00 W/m2
16:41 63.5 °F 52.0 °F 29.84 in NW 9.0 mph 12.0 mph 66 % 0.00 in 555.00 W/m2
16:46 63.5 °F 52.4 °F 29.84 in Calm   7.0 mph 67 % 0.00 in 543.00 W/m2
16:51 63.5 °F 51.5 °F 29.85 in NW 4.0 mph 7.0 mph 65 % 0.00 in 524.00 W/m2
16:56 63.5 °F 52.0 °F 29.85 in North 1.0 mph 6.0 mph 66 % 0.00 in 510.00 W/m2
17:01 63.5 °F 52.0 °F 29.85 in NW 1.0 mph 2.0 mph 66 % 0.00 in 494.00 W/m2
17:07 63.6 °F 52.0 °F 29.85 in NW 2.0 mph 6.0 mph 66 % 0.00 in 478.00 W/m2
17:12 63.7 °F 51.7 °F 29.85 in Calm   8.0 mph 65 % 0.00 in 464.00 W/m2
17:17 63.8 °F 51.4 °F 29.85 in NNW 1.0 mph 4.0 mph 64 % 0.00 in 448.00 W/m2
17:22 63.8 °F 51.4 °F 29.85 in WNW 1.0 mph 9.0 mph 64 % 0.00 in 432.00 W/m2
17:27 63.7 °F 50.9 °F 29.85 in NW 7.0 mph 8.0 mph 63 % 0.00 in 418.00 W/m2
17:32 63.6 °F 50.8 °F 29.85 in North 8.0 mph 11.0 mph 63 % 0.00 in 404.00 W/m2
17:37 63.6 °F 51.2 °F 29.85 in Calm   1.0 mph 64 % 0.00 in 387.00 W/m2
17:42 63.6 °F 51.2 °F 29.85 in WNW 1.0 mph 7.0 mph 64 % 0.00 in 369.00 W/m2
17:47 63.6 °F 50.8 °F 29.85 in WNW 5.0 mph 14.0 mph 63 % 0.00 in 353.00 W/m2
17:52 63.6 °F 50.4 °F 29.85 in NW 4.0 mph 4.0 mph 62 % 0.00 in 339.00 W/m2
17:57 63.6 °F 51.2 °F 29.86 in WNW 3.0 mph 5.0 mph 64 % 0.00 in 313.00 W/m2
18:02 63.5 °F 50.7 °F 29.86 in Calm     63 % 0.00 in 308.00 W/m2
18:07 63.6 °F 51.6 °F 29.86 in WNW 3.0 mph 3.0 mph 65 % 0.00 in 290.00 W/m2
18:12 63.6 °F 51.2 °F 29.87 in WNW 3.0 mph 4.0 mph 64 % 0.00 in 172.00 W/m2
18:17 63.6 °F 51.2 °F 29.87 in WNW 2.0 mph 4.0 mph 64 % 0.00 in 218.00 W/m2
18:22 63.6 °F 51.2 °F 29.87 in Calm   8.0 mph 64 % 0.00 in 220.00 W/m2
18:23 63.6 °F 50.8 °F 29.87 in Calm   8.0 mph 63 % 0.00 in 214.00 W/m2
18:28 63.6 °F 51.6 °F 29.87 in Calm   2.0 mph 65 % 0.00 in 207.00 W/m2
18:33 63.4 °F 51.0 °F 29.87 in Calm   8.0 mph 64 % 0.00 in 181.00 W/m2
18:38 63.2 °F 50.8 °F 29.87 in West 2.0 mph 4.0 mph 64 % 0.00 in 130.00 W/m2
18:43 63.1 °F 50.7 °F 29.88 in Calm   6.0 mph 64 % 0.00 in 128.00 W/m2
18:48 63.0 °F 50.7 °F 29.88 in West 2.0 mph 5.0 mph 64 % 0.00 in 139.00 W/m2
18:53 62.9 °F 50.1 °F 29.88 in Calm   1.0 mph 63 % 0.00 in 130.00 W/m2
18:58 62.7 °F 50.4 °F 29.88 in Calm   8.0 mph 64 % 0.00 in 90.00 W/m2
19:03 62.6 °F 50.7 °F 29.89 in Calm     65 % 0.00 in 83.00 W/m2
19:08 62.5 °F 50.6 °F 29.89 in Calm   1.0 mph 65 % 0.00 in 69.00 W/m2
19:13 62.4 °F 50.9 °F 29.89 in Calm     66 % 0.00 in 69.00 W/m2
19:18 62.3 °F 50.8 °F 29.89 in WNW 1.0 mph 1.0 mph 66 % 0.00 in 60.00 W/m2
19:23 62.2 °F 50.7 °F 29.89 in Calm     66 % 0.00 in 53.00 W/m2
19:28 62.0 °F 50.9 °F 29.90 in Calm   1.0 mph 67 % 0.00 in 46.00 W/m2
19:33 61.8 °F 50.3 °F 29.90 in Calm   1.0 mph 66 % 0.00 in 46.00 W/m2
19:38 61.5 °F 50.5 °F 29.90 in Calm     67 % 0.00 in 42.00 W/m2
19:43 61.1 °F 50.9 °F 29.90 in Calm     69 % 0.00 in 33.00 W/m2
19:48 60.8 °F 50.6 °F 29.90 in Calm     69 % 0.00 in 26.00 W/m2
19:53 60.6 °F 50.8 °F 29.90 in Calm     70 % 0.00 in 18.00 W/m2
19:58 60.5 °F 51.4 °F 29.90 in Calm     72 % 0.00 in 12.00 W/m2
20:03 60.3 °F 51.2 °F 29.91 in Calm     72 % 0.00 in 7.00 W/m2
20:05 60.2 °F 51.2 °F 29.91 in Calm     72 % 0.00 in 7.00 W/m2
20:10 60.0 °F 51.0 °F 29.91 in Calm     72 % 0.00 in 0.00 W/m2
20:15 59.8 °F 51.1 °F 29.91 in Calm     73 % 0.00 in 0.00 W/m2
20:20 59.5 °F 50.8 °F 29.91 in Calm     73 % 0.00 in 0.00 W/m2
20:26 59.1 °F 50.8 °F 29.91 in Calm     74 % 0.00 in 0.00 W/m2
20:30 58.9 °F 50.6 °F 29.91 in Calm     74 % 0.00 in 0.00 W/m2
20:35 58.6 °F 50.3 °F 29.91 in Calm     74 % 0.00 in 0.00 W/m2
20:41 58.3 °F 50.4 °F 29.91 in Calm     75 % 0.00 in 0.00 W/m2
20:46 57.8 °F 50.3 °F 29.91 in Calm   1.0 mph 76 % 0.00 in 0.00 W/m2
20:51 57.3 °F 50.2 °F 29.92 in Calm     77 % 0.00 in 0.00 W/m2
20:56 57.0 °F 49.9 °F 29.92 in Calm     77 % 0.00 in 0.00 W/m2
21:01 56.7 °F 49.6 °F 29.92 in Calm     77 % 0.00 in 0.00 W/m2
21:06 56.6 °F 49.8 °F 29.92 in Calm     78 % 0.00 in 0.00 W/m2
21:11 56.4 °F 49.6 °F 29.92 in Calm     78 % 0.00 in 0.00 W/m2
21:16 56.2 °F 49.4 °F 29.92 in Calm     78 % 0.00 in 0.00 W/m2
21:21 56.0 °F 49.6 °F 29.92 in Calm     79 % 0.00 in 0.00 W/m2
21:26 55.7 °F 49.3 °F 29.92 in Calm     79 % 0.00 in 0.00 W/m2
21:31 55.3 °F 48.9 °F 29.92 in Calm     79 % 0.00 in 0.00 W/m2
21:36 54.9 °F 48.9 °F 29.92 in Calm     80 % 0.00 in 0.00 W/m2
21:41 54.7 °F 49.0 °F 29.93 in Calm     81 % 0.00 in 0.00 W/m2
21:46 54.6 °F 48.9 °F 29.93 in Calm     81 % 0.00 in 0.00 W/m2
21:51 54.5 °F 48.8 °F 29.93 in Calm     81 % 0.00 in 0.00 W/m2
21:56 54.4 °F 48.7 °F 29.93 in Calm     81 % 0.00 in 0.00 W/m2
22:01 54.4 °F 48.7 °F 29.93 in Calm     81 % 0.00 in 0.00 W/m2
22:06 54.3 °F 48.6 °F 29.93 in Calm     81 % 0.00 in 0.00 W/m2
22:11 54.2 °F 48.8 °F 29.93 in Calm     82 % 0.00 in 0.00 W/m2
22:16 54.0 °F 48.6 °F 29.93 in Calm     82 % 0.00 in 0.00 W/m2
22:21 53.9 °F 48.5 °F 29.93 in Calm     82 % 0.00 in 0.00 W/m2
22:26 53.8 °F 48.4 °F 29.93 in Calm     82 % 0.00 in 0.00 W/m2
22:31 53.7 °F 48.7 °F 29.93 in Calm     83 % 0.00 in 0.00 W/m2
22:36 53.7 °F 48.7 °F 29.93 in Calm     83 % 0.00 in 0.00 W/m2
22:41 53.6 °F 48.6 °F 29.93 in Calm     83 % 0.00 in 0.00 W/m2
22:46 53.5 °F 48.5 °F 29.93 in Calm     83 % 0.00 in 0.00 W/m2
22:51 53.4 °F 48.4 °F 29.93 in Calm     83 % 0.00 in 0.00 W/m2
22:56 53.3 °F 48.6 °F 29.93 in Calm     84 % 0.00 in 0.00 W/m2
23:01 53.3 °F 48.6 °F 29.93 in Calm     84 % 0.00 in 0.00 W/m2
23:06 53.3 °F 48.6 °F 29.93 in Calm     84 % 0.00 in 0.00 W/m2
23:11 53.3 °F 48.6 °F 29.93 in Calm     84 % 0.00 in 0.00 W/m2
23:16 53.3 °F 48.6 °F 29.93 in Calm     84 % 0.00 in 0.00 W/m2
23:21 53.3 °F 48.6 °F 29.93 in Calm     84 % 0.00 in 0.00 W/m2
23:26 53.2 °F 48.5 °F 29.93 in Calm     84 % 0.00 in 0.00 W/m2
23:31 53.2 °F 48.5 °F 29.93 in Calm     84 % 0.00 in 0.00 W/m2
23:36 53.2 °F 48.5 °F 29.93 in Calm     84 % 0.00 in 0.00 W/m2
23:41 53.1 °F 48.4 °F 29.93 in Calm     84 % 0.00 in 0.00 W/m2
23:46 53.1 °F 48.4 °F 29.93 in Calm     84 % 0.00 in 0.00 W/m2
23:51 53.1 °F 48.4 °F 29.93 in Calm     84 % 0.00 in 0.00 W/m2
23:56 53.1 °F 48.4 °F 29.94 in Calm     84 % 0.00 in 0.00 W/m2
Juneau County Weather
Compliments of Weather Underground - 4.5 mb
 WU-history PHP script courtesy of   Juneau County Weather.
powered by Cumulus v1.9.3 (1059)
Ambient Weather VWS v14.00
Top Contact Website Map Copyright © 2007 - 2018 Foresthillweather.com Never base important decisions on this or any weather information obtained from the Internet